createdAt,value
2023-04-10T00:00:32.203Z,6.12
2023-04-10T00:01:32.201Z,6.30
2023-04-10T00:02:32.276Z,6.52
2023-04-10T00:03:32.205Z,6.67
2023-04-10T00:04:32.146Z,6.81
2023-04-10T00:05:32.107Z,6.94
2023-04-10T00:06:32.086Z,6.91
2023-04-10T00:07:32.118Z,6.91
2023-04-10T00:08:32.056Z,6.97
2023-04-10T00:09:32.048Z,6.94
2023-04-10T00:10:32.040Z,6.97
2023-04-10T00:11:32.028Z,6.95
2023-04-10T00:12:32.033Z,6.95
2023-04-10T00:13:32.022Z,6.91
2023-04-10T00:14:31.993Z,6.88
2023-04-10T00:15:31.982Z,6.81
2023-04-10T00:16:31.984Z,6.74
2023-04-10T00:17:32.007Z,6.73
2023-04-10T00:18:31.951Z,6.64
2023-04-10T00:19:31.982Z,6.64
2023-04-10T00:20:31.903Z,6.58
2023-04-10T00:21:31.951Z,6.56
2023-04-10T00:22:31.928Z,6.51
2023-04-10T00:23:31.882Z,6.49
2023-04-10T00:24:31.875Z,6.43
2023-04-10T00:25:31.854Z,6.40
2023-04-10T00:26:31.893Z,6.37
2023-04-10T00:27:31.840Z,6.33
2023-04-10T00:28:31.903Z,6.34
2023-04-10T00:29:31.801Z,6.28
2023-04-10T00:30:31.782Z,6.21
2023-04-10T00:31:31.787Z,6.21
2023-04-10T00:32:31.795Z,6.25
2023-04-10T00:33:31.785Z,6.18
2023-04-10T00:34:31.756Z,6.15
2023-04-10T00:35:31.743Z,6.12
2023-04-10T00:36:31.728Z,6.11
2023-04-10T00:37:31.687Z,6.09
2023-04-10T00:38:31.715Z,6.04
2023-04-10T00:39:31.675Z,6.01
2023-04-10T00:40:31.660Z,6.01
2023-04-10T00:41:31.665Z,5.99
2023-04-10T00:42:31.652Z,5.99
2023-04-10T00:43:31.640Z,5.94
2023-04-10T00:44:31.606Z,5.91
2023-04-10T00:45:31.592Z,5.86
2023-04-10T00:46:31.629Z,5.93
2023-04-10T00:47:31.611Z,5.89
2023-04-10T00:48:31.545Z,5.90
2023-04-10T00:49:31.535Z,5.86
2023-04-10T00:50:31.526Z,5.89
2023-04-10T00:51:31.505Z,5.86
2023-04-10T00:52:31.504Z,5.83
2023-04-10T00:53:31.483Z,5.81
2023-04-10T00:54:31.490Z,5.81
2023-04-10T00:55:31.494Z,5.82
2023-04-10T00:56:31.459Z,5.78
2023-04-10T00:57:31.439Z,5.82
2023-04-10T00:58:31.431Z,5.79
2023-04-10T00:59:31.428Z,5.75
2023-04-10T01:00:31.392Z,5.75
2023-04-10T01:01:31.376Z,5.78
2023-04-10T01:02:31.486Z,5.76
2023-04-10T01:03:31.595Z,5.75
2023-04-10T01:04:31.460Z,5.75
2023-04-10T01:05:31.375Z,5.81
2023-04-10T01:06:31.333Z,5.81
2023-04-10T01:07:31.318Z,5.83
2023-04-10T01:08:31.282Z,5.82
2023-04-10T01:09:31.255Z,5.89
2023-04-10T01:10:31.262Z,5.94
2023-04-10T01:11:31.253Z,6.00
2023-04-10T01:12:31.277Z,6.06
2023-04-10T01:13:31.219Z,6.06
2023-04-10T01:14:31.238Z,6.08
2023-04-10T01:15:31.243Z,6.12
2023-04-10T01:16:31.222Z,6.17
2023-04-10T01:17:31.209Z,6.19
2023-04-10T01:18:31.170Z,6.28
2023-04-10T01:19:31.156Z,6.34
2023-04-10T01:20:31.151Z,6.41
2023-04-10T01:21:31.151Z,6.48
2023-04-10T01:22:31.105Z,6.58
2023-04-10T01:23:31.124Z,6.71
2023-04-10T01:24:31.076Z,6.79
2023-04-10T01:25:31.099Z,6.89
2023-04-10T01:26:31.069Z,7.07
2023-04-10T01:27:31.037Z,7.16
2023-04-10T01:28:31.052Z,7.30
2023-04-10T01:29:31.148Z,7.49
2023-04-10T01:30:31.113Z,7.57
2023-04-10T01:31:31.039Z,7.63
2023-04-10T01:32:31.002Z,7.72
2023-04-10T01:33:30.997Z,7.79
2023-04-10T01:34:31.007Z,7.86
2023-04-10T01:35:30.955Z,7.98
2023-04-10T01:36:30.925Z,8.05
2023-04-10T01:37:30.967Z,8.25
2023-04-10T01:38:30.888Z,8.29
2023-04-10T01:39:30.887Z,8.38
2023-04-10T01:40:30.936Z,8.45
2023-04-10T01:41:30.861Z,8.47
2023-04-10T01:42:30.847Z,8.53
2023-04-10T01:43:30.825Z,8.56
2023-04-10T01:44:30.842Z,8.61
2023-04-10T01:45:30.904Z,8.66
2023-04-10T01:46:30.889Z,8.65
2023-04-10T01:47:30.809Z,8.68
2023-04-10T01:48:30.848Z,8.74
2023-04-10T01:49:30.789Z,8.70
2023-04-10T01:50:30.798Z,8.73
2023-04-10T01:51:30.743Z,8.70
2023-04-10T01:52:30.764Z,8.66
2023-04-10T01:53:30.691Z,8.66
2023-04-10T01:54:30.741Z,8.65
2023-04-10T01:55:30.681Z,8.70
2023-04-10T01:56:30.685Z,8.73
2023-04-10T01:57:30.757Z,8.73
2023-04-10T01:58:30.675Z,8.70
2023-04-10T01:59:30.617Z,8.74
2023-04-10T02:00:30.641Z,8.81
2023-04-10T02:01:30.769Z,8.81
2023-04-10T02:02:30.774Z,8.86
2023-04-10T02:03:30.822Z,8.91
2023-04-10T02:04:30.699Z,8.94
2023-04-10T02:05:30.563Z,8.95
2023-04-10T02:06:30.593Z,8.94
2023-04-10T02:07:30.549Z,8.94
2023-04-10T02:08:30.559Z,8.84
2023-04-10T02:09:38.046Z,8.84
2023-04-10T02:10:30.482Z,8.89
2023-04-10T02:11:30.470Z,8.89
2023-04-10T02:12:30.494Z,8.87
2023-04-10T02:13:30.464Z,8.89
2023-04-10T02:14:30.485Z,8.83
2023-04-10T02:15:30.464Z,8.80
2023-04-10T02:16:30.461Z,8.76
2023-04-10T02:17:30.425Z,8.73
2023-04-10T02:18:30.418Z,8.63
2023-04-10T02:19:30.417Z,8.59
2023-04-10T02:20:30.430Z,8.56
2023-04-10T02:21:30.340Z,8.44
2023-04-10T02:22:30.368Z,8.44
2023-04-10T02:23:30.309Z,8.38
2023-04-10T02:24:30.338Z,8.37
2023-04-10T02:25:30.316Z,8.36
2023-04-10T02:26:30.340Z,8.29
2023-04-10T02:27:30.326Z,8.25
2023-04-10T02:28:30.284Z,8.19
2023-04-10T02:29:30.314Z,8.12
2023-04-10T02:30:30.269Z,8.08
2023-04-10T02:31:30.311Z,8.04
2023-04-10T02:32:30.288Z,8.01
2023-04-10T02:33:30.245Z,8.02
2023-04-10T02:34:30.202Z,8.01
2023-04-10T02:35:30.191Z,8.04
2023-04-10T02:36:30.189Z,8.01
2023-04-10T02:37:30.155Z,8.00
2023-04-10T02:38:30.150Z,8.05
2023-04-10T02:39:30.152Z,8.01
2023-04-10T02:40:30.146Z,8.08
2023-04-10T02:41:30.125Z,8.10
2023-04-10T02:42:30.094Z,8.05
2023-04-10T02:43:30.091Z,8.02
2023-04-10T02:44:30.072Z,8.10
2023-04-10T02:45:30.075Z,8.10
2023-04-10T02:46:30.198Z,8.16
2023-04-10T02:47:30.060Z,8.15
2023-04-10T02:48:30.046Z,8.11
2023-04-10T02:49:30.022Z,8.10
2023-04-10T02:50:30.022Z,8.08
2023-04-10T02:51:29.995Z,8.12
2023-04-10T02:52:30.059Z,8.12
2023-04-10T02:53:29.976Z,8.16
2023-04-10T02:54:29.967Z,8.25
2023-04-10T02:55:29.946Z,8.29
2023-04-10T02:56:29.925Z,8.28
2023-04-10T02:57:29.901Z,8.22
2023-04-10T02:58:29.931Z,8.19
2023-04-10T02:59:29.876Z,8.22
2023-04-10T03:00:29.911Z,8.18
2023-04-10T03:01:29.952Z,8.20
2023-04-10T03:02:30.029Z,8.23
2023-04-10T03:03:30.010Z,8.22
2023-04-10T03:04:29.856Z,8.23
2023-04-10T03:05:29.793Z,8.22
2023-04-10T03:06:29.815Z,8.23
2023-04-10T03:07:29.811Z,8.16
2023-04-10T03:08:29.775Z,8.19
2023-04-10T03:09:29.777Z,8.10
2023-04-10T03:10:29.752Z,8.07
2023-04-10T03:11:29.760Z,8.05
2023-04-10T03:12:29.718Z,8.08
2023-04-10T03:13:29.703Z,8.16
2023-04-10T03:14:29.701Z,8.16
2023-04-10T03:15:29.723Z,8.20
2023-04-10T03:16:29.716Z,8.23
2023-04-10T03:17:39.553Z,8.25
2023-04-10T03:18:29.695Z,8.33
2023-04-10T03:19:29.706Z,8.37
2023-04-10T03:20:29.670Z,8.37
2023-04-10T03:21:29.664Z,8.37
2023-04-10T03:22:29.627Z,8.41
2023-04-10T03:23:29.642Z,8.43
2023-04-10T03:24:29.708Z,8.38
2023-04-10T03:25:29.561Z,8.34
2023-04-10T03:26:29.599Z,8.26
2023-04-10T03:27:29.523Z,8.28
2023-04-10T03:28:29.508Z,8.29
2023-04-10T03:29:29.519Z,8.28
2023-04-10T03:30:29.520Z,8.29
2023-04-10T03:31:29.736Z,8.29
2023-04-10T03:32:29.518Z,8.34
2023-04-10T03:33:29.558Z,8.28
2023-04-10T03:34:29.520Z,8.28
2023-04-10T03:35:29.423Z,8.28
2023-04-10T03:36:29.536Z,8.26
2023-04-10T03:37:29.438Z,8.22
2023-04-10T03:38:29.446Z,8.22
2023-04-10T03:39:29.400Z,8.19
2023-04-10T03:40:29.483Z,8.12
2023-04-10T03:41:29.376Z,8.15
2023-04-10T03:42:29.369Z,8.12
2023-04-10T03:43:29.378Z,8.16
2023-04-10T03:44:29.319Z,8.12
2023-04-10T03:45:29.334Z,8.11
2023-04-10T03:46:29.330Z,8.08
2023-04-10T03:47:29.301Z,8.12
2023-04-10T03:48:29.263Z,8.19
2023-04-10T03:49:29.322Z,8.18
2023-04-10T03:50:29.252Z,8.18
2023-04-10T03:51:29.254Z,8.19
2023-04-10T03:52:29.294Z,8.25
2023-04-10T03:53:29.267Z,8.34
2023-04-10T03:54:29.230Z,8.43
2023-04-10T03:55:29.216Z,8.48
2023-04-10T03:56:29.187Z,8.47
2023-04-10T03:57:29.141Z,8.53
2023-04-10T03:58:29.162Z,8.50
2023-04-10T03:59:38.191Z,8.50
2023-04-10T04:00:30.222Z,8.58
2023-04-10T04:01:29.186Z,8.68
2023-04-10T04:02:29.307Z,8.68
2023-04-10T04:03:29.253Z,8.86
2023-04-10T04:04:29.907Z,8.89
2023-04-10T04:05:29.051Z,8.94
2023-04-10T04:06:29.174Z,8.83
2023-04-10T04:07:29.456Z,8.73
2023-04-10T04:08:31.488Z,8.66
2023-04-10T04:09:29.058Z,8.61
2023-04-10T04:10:29.020Z,8.63
2023-04-10T04:11:29.059Z,8.53
2023-04-10T04:12:28.967Z,8.50
2023-04-10T04:13:29.082Z,8.38
2023-04-10T04:14:30.547Z,8.33
2023-04-10T04:15:28.946Z,8.29
2023-04-10T04:16:28.984Z,8.33
2023-04-10T04:17:28.944Z,8.29
2023-04-10T04:18:30.484Z,8.22
2023-04-10T04:19:29.979Z,8.18
2023-04-10T04:20:28.888Z,8.12
2023-04-10T04:21:28.874Z,8.11
2023-04-10T04:22:28.868Z,8.15
2023-04-10T04:23:29.054Z,8.12
2023-04-10T04:24:30.115Z,8.11
2023-04-10T04:25:29.628Z,8.12
2023-04-10T04:26:28.833Z,8.08
2023-04-10T04:27:28.798Z,8.10
2023-04-10T04:28:30.339Z,8.02
2023-04-10T04:29:28.814Z,7.98
2023-04-10T04:30:28.752Z,7.90
2023-04-10T04:31:28.749Z,7.86
2023-04-10T04:32:28.808Z,7.86
2023-04-10T04:33:28.706Z,7.82
2023-04-10T04:34:28.859Z,7.83
2023-04-10T04:35:28.686Z,7.79
2023-04-10T04:36:30.529Z,7.89
2023-04-10T04:37:28.685Z,7.90
2023-04-10T04:38:36.471Z,7.90
2023-04-10T04:39:28.737Z,7.95
2023-04-10T04:40:28.712Z,7.98
2023-04-10T04:41:28.694Z,8.02
2023-04-10T04:42:28.651Z,8.12
2023-04-10T04:43:28.608Z,8.16
2023-04-10T04:44:29.075Z,8.23
2023-04-10T04:45:28.613Z,8.33
2023-04-10T04:46:28.947Z,8.30
2023-04-10T04:47:29.138Z,8.36
2023-04-10T04:48:28.515Z,8.44
2023-04-10T04:49:28.516Z,8.52
2023-04-10T04:50:28.519Z,8.59
2023-04-10T04:51:28.464Z,8.65
2023-04-10T04:52:28.501Z,8.59
2023-04-10T04:53:28.491Z,8.63
2023-04-10T04:54:29.522Z,8.66
2023-04-10T04:55:28.470Z,8.65
2023-04-10T04:56:28.457Z,8.62
2023-04-10T04:57:28.397Z,8.59
2023-04-10T04:58:34.221Z,8.59
2023-04-10T04:59:28.547Z,8.59
2023-04-10T05:00:28.754Z,8.65
2023-04-10T05:01:28.419Z,8.74
2023-04-10T05:02:28.570Z,8.83
2023-04-10T05:03:28.662Z,8.89
2023-04-10T05:04:29.644Z,8.81
2023-04-10T05:05:28.308Z,8.86
2023-04-10T05:06:28.373Z,8.89
2023-04-10T05:07:36.788Z,8.92
2023-04-10T05:08:29.948Z,8.94
2023-04-10T05:09:28.250Z,8.96
2023-04-10T05:10:28.246Z,9.02
2023-04-10T05:11:28.208Z,9.08
2023-04-10T05:12:28.252Z,9.14
2023-04-10T05:13:28.217Z,9.11
2023-04-10T05:14:28.243Z,9.08
2023-04-10T05:15:28.185Z,9.05
2023-04-10T05:16:28.182Z,9.10
2023-04-10T05:17:28.233Z,9.11
2023-04-10T05:18:28.182Z,9.18
2023-04-10T05:19:28.117Z,9.28
2023-04-10T05:20:28.156Z,9.29
2023-04-10T05:21:28.107Z,9.33
2023-04-10T05:22:28.079Z,9.33
2023-04-10T05:23:28.130Z,9.35
2023-04-10T05:24:28.051Z,9.46
2023-04-10T05:25:28.043Z,9.46
2023-04-10T05:26:28.023Z,9.50
2023-04-10T05:27:28.043Z,9.50
2023-04-10T05:28:28.080Z,9.58
2023-04-10T05:29:28.182Z,9.61
2023-04-10T05:30:28.105Z,9.58
2023-04-10T05:31:28.037Z,9.60
2023-04-10T05:32:28.230Z,9.71
2023-04-10T05:33:28.078Z,9.74
2023-04-10T05:34:28.004Z,9.84
2023-04-10T05:35:28.120Z,9.87
2023-04-10T05:36:27.956Z,9.91
2023-04-10T05:37:28.071Z,9.91
2023-04-10T05:38:28.053Z,9.90
2023-04-10T05:39:28.124Z,9.96
2023-04-10T05:40:27.971Z,10.04
2023-04-10T05:41:28.017Z,10.04
2023-04-10T05:42:27.885Z,10.12
2023-04-10T05:43:27.833Z,10.17
2023-04-10T05:44:27.828Z,10.29
2023-04-10T05:45:27.795Z,10.32
2023-04-10T05:46:27.815Z,10.38
2023-04-10T05:47:28.179Z,10.38
2023-04-10T05:48:27.859Z,10.40
2023-04-10T05:49:27.776Z,10.40
2023-04-10T05:50:29.974Z,10.45
2023-04-10T05:51:27.722Z,10.55
2023-04-10T05:52:27.809Z,10.61
2023-04-10T05:53:27.696Z,10.66
2023-04-10T05:54:27.688Z,10.68
2023-04-10T05:55:27.815Z,10.74
2023-04-10T05:56:28.041Z,10.78
2023-04-10T05:57:27.955Z,10.79
2023-04-10T05:58:27.815Z,10.82
2023-04-10T05:59:27.883Z,10.86
2023-04-10T06:00:27.830Z,10.89
2023-04-10T06:01:28.022Z,10.94
2023-04-10T06:02:28.022Z,11.02
2023-04-10T06:03:27.820Z,11.11
2023-04-10T06:04:27.728Z,11.22
2023-04-10T06:05:27.594Z,11.33
2023-04-10T06:06:27.544Z,11.32
2023-04-10T06:07:27.508Z,11.37
2023-04-10T06:08:27.495Z,11.37
2023-04-10T06:09:27.502Z,11.35
2023-04-10T06:10:27.499Z,11.33
2023-04-10T06:11:27.458Z,11.43
2023-04-10T06:12:27.482Z,11.54
2023-04-10T06:13:27.469Z,11.60
2023-04-10T06:14:27.430Z,11.67
2023-04-10T06:15:27.388Z,11.69
2023-04-10T06:16:27.391Z,11.72
2023-04-10T06:17:27.403Z,11.65
2023-04-10T06:18:27.345Z,11.55
2023-04-10T06:19:27.349Z,11.44
2023-04-10T06:20:27.344Z,11.42
2023-04-10T06:21:27.478Z,11.36
2023-04-10T06:22:27.341Z,11.36
2023-04-10T06:23:27.335Z,11.39
2023-04-10T06:24:27.290Z,11.37
2023-04-10T06:25:27.398Z,11.33
2023-04-10T06:26:27.250Z,11.35
2023-04-10T06:27:27.271Z,11.37
2023-04-10T06:28:27.210Z,11.46
2023-04-10T06:29:27.183Z,11.51
2023-04-10T06:30:27.250Z,11.58
2023-04-10T06:31:27.509Z,11.61
2023-04-10T06:32:32.915Z,11.70
2023-04-10T06:33:27.427Z,11.65
2023-04-10T06:34:28.348Z,11.70
2023-04-10T06:35:27.152Z,11.70
2023-04-10T06:36:27.118Z,11.72
2023-04-10T06:37:27.112Z,11.73
2023-04-10T06:38:27.103Z,11.80
2023-04-10T06:39:27.069Z,11.86
2023-04-10T06:40:27.236Z,11.91
2023-04-10T06:41:27.053Z,12.04
2023-04-10T06:42:27.212Z,12.19
2023-04-10T06:43:27.167Z,12.29
2023-04-10T06:44:26.994Z,12.28
2023-04-10T06:45:27.168Z,12.45
2023-04-10T06:46:27.656Z,12.53
2023-04-10T06:47:27.813Z,12.46
2023-04-10T06:48:27.839Z,12.54
2023-04-10T06:49:26.933Z,12.79
2023-04-10T06:50:26.941Z,12.93
2023-04-10T06:51:27.096Z,13.00
2023-04-10T06:52:26.905Z,12.92
2023-04-10T06:53:28.629Z,13.04
2023-04-10T06:54:26.950Z,13.08
2023-04-10T06:55:26.861Z,13.00
2023-04-10T06:56:26.864Z,13.08
2023-04-10T06:57:27.648Z,12.95
2023-04-10T06:58:27.342Z,12.90
2023-04-10T06:59:28.833Z,12.90
2023-04-10T07:00:27.206Z,12.95
2023-04-10T07:01:26.869Z,12.93
2023-04-10T07:02:27.209Z,12.95
2023-04-10T07:03:26.805Z,12.83
2023-04-10T07:04:26.710Z,12.74
2023-04-10T07:05:27.146Z,12.67
2023-04-10T07:06:26.978Z,12.70
2023-04-10T07:07:26.756Z,12.75
2023-04-10T07:08:26.891Z,12.71
2023-04-10T07:09:26.713Z,12.65
2023-04-10T07:10:26.913Z,12.75
2023-04-10T07:11:26.907Z,12.83
2023-04-10T07:12:26.772Z,12.83
2023-04-10T07:13:26.747Z,12.85
2023-04-10T07:14:26.798Z,12.93
2023-04-10T07:15:27.143Z,13.05
2023-04-10T07:16:26.615Z,12.95
2023-04-10T07:17:26.723Z,13.10
2023-04-10T07:18:26.790Z,13.20
2023-04-10T07:19:26.552Z,13.32
2023-04-10T07:20:26.683Z,13.36
2023-04-10T07:21:27.190Z,13.36
2023-04-10T07:22:26.574Z,13.32
2023-04-10T07:23:26.564Z,13.42
2023-04-10T07:24:26.623Z,13.55
2023-04-10T07:25:26.499Z,13.70
2023-04-10T07:26:26.445Z,13.88
2023-04-10T07:27:26.592Z,13.92
2023-04-10T07:28:26.558Z,13.79
2023-04-10T07:29:26.426Z,13.70
2023-04-10T07:30:26.513Z,13.67
2023-04-10T07:31:26.482Z,13.67
2023-04-10T07:32:26.813Z,13.77
2023-04-10T07:33:27.070Z,13.63
2023-04-10T07:34:26.292Z,13.66
2023-04-10T07:35:26.479Z,13.52
2023-04-10T07:36:26.295Z,13.39
2023-04-10T07:37:26.482Z,13.32
2023-04-10T07:38:26.345Z,13.36
2023-04-10T07:39:26.489Z,13.32
2023-04-10T07:40:26.424Z,13.30
2023-04-10T07:41:26.406Z,13.29
2023-04-10T07:42:26.186Z,13.36
2023-04-10T07:43:26.219Z,13.44
2023-04-10T07:44:26.237Z,13.38
2023-04-10T07:45:26.143Z,13.19
2023-04-10T07:46:26.155Z,13.19
2023-04-10T07:47:35.078Z,13.20
2023-04-10T07:48:29.130Z,13.26
2023-04-10T07:49:26.275Z,13.32
2023-04-10T07:50:34.949Z,13.39
2023-04-10T07:51:41.565Z,13.59
2023-04-10T07:52:26.604Z,13.63
2023-04-10T07:53:33.660Z,13.60
2023-04-10T07:54:26.250Z,13.62
2023-04-10T07:55:26.059Z,13.70
2023-04-10T07:56:26.124Z,13.69
2023-04-10T07:57:26.021Z,13.70
2023-04-10T07:58:26.030Z,13.71
2023-04-10T07:59:26.073Z,13.81
2023-04-10T08:00:25.957Z,13.99
2023-04-10T08:01:25.984Z,14.09
2023-04-10T08:02:26.308Z,14.32
2023-04-10T08:03:26.091Z,14.52
2023-04-10T08:04:26.126Z,14.57
2023-04-10T08:05:25.942Z,14.42
2023-04-10T08:06:25.932Z,14.42
2023-04-10T08:07:25.888Z,14.42
2023-04-10T08:08:25.806Z,14.47
2023-04-10T08:09:25.833Z,14.62
2023-04-10T08:10:25.863Z,14.88
2023-04-10T08:11:25.950Z,14.86
2023-04-10T08:12:25.789Z,14.81
2023-04-10T08:13:25.757Z,14.91
2023-04-10T08:14:25.742Z,14.96
2023-04-10T08:15:25.751Z,15.16
2023-04-10T08:16:25.736Z,15.20
2023-04-10T08:17:25.919Z,15.32
2023-04-10T08:18:25.685Z,15.41
2023-04-10T08:19:36.988Z,15.38
2023-04-10T08:20:25.679Z,15.46
2023-04-10T08:21:26.056Z,15.41
2023-04-10T08:22:25.816Z,15.54
2023-04-10T08:23:26.245Z,15.44
2023-04-10T08:24:25.912Z,15.56
2023-04-10T08:25:26.221Z,15.51
2023-04-10T08:26:29.874Z,15.60
2023-04-10T08:27:25.674Z,15.41
2023-04-10T08:28:25.739Z,15.23
2023-04-10T08:29:25.835Z,15.32
2023-04-10T08:30:25.842Z,15.28
2023-04-10T08:31:25.936Z,15.25
2023-04-10T08:32:25.738Z,15.31
2023-04-10T08:33:25.732Z,15.29
2023-04-10T08:34:25.595Z,15.41
2023-04-10T08:35:25.984Z,15.56
2023-04-10T08:36:25.661Z,15.51
2023-04-10T08:37:25.643Z,15.46
2023-04-10T08:38:26.805Z,15.51
2023-04-10T08:39:25.615Z,15.64
2023-04-10T08:40:30.880Z,15.60
2023-04-10T08:41:26.478Z,15.43
2023-04-10T08:42:25.446Z,15.29
2023-04-10T08:43:26.008Z,15.13
2023-04-10T08:44:33.910Z,15.19
2023-04-10T08:45:25.382Z,15.35
2023-04-10T08:46:25.433Z,15.47
2023-04-10T08:47:25.404Z,15.57
2023-04-10T08:48:25.281Z,15.65
2023-04-10T08:49:25.610Z,15.56
2023-04-10T08:50:25.356Z,15.46
2023-04-10T08:51:26.683Z,15.36
2023-04-10T08:52:25.281Z,15.39
2023-04-10T08:53:25.231Z,15.31
2023-04-10T08:54:25.177Z,15.34
2023-04-10T08:55:25.184Z,15.35
2023-04-10T08:56:25.208Z,15.31
2023-04-10T08:57:25.158Z,15.17
2023-04-10T08:58:25.153Z,15.13
2023-04-10T08:59:25.179Z,15.38
2023-04-10T09:00:25.155Z,15.35
2023-04-10T09:01:25.163Z,15.49
2023-04-10T09:02:25.333Z,15.71
2023-04-10T09:03:26.055Z,15.97
2023-04-10T09:04:26.365Z,16.20
2023-04-10T09:05:25.486Z,16.15
2023-04-10T09:06:25.091Z,16.27
2023-04-10T09:07:25.011Z,16.07
2023-04-10T09:08:25.020Z,15.92
2023-04-10T09:09:24.995Z,15.69
2023-04-10T09:10:24.981Z,15.69
2023-04-10T09:11:25.331Z,15.75
2023-04-10T09:12:24.957Z,15.54
2023-04-10T09:13:24.939Z,15.56
2023-04-10T09:14:24.939Z,15.51
2023-04-10T09:15:24.893Z,15.46
2023-04-10T09:16:24.968Z,15.47
2023-04-10T09:17:25.306Z,15.71
2023-04-10T09:18:24.989Z,15.97
2023-04-10T09:19:24.994Z,16.33
2023-04-10T09:20:24.918Z,16.60
2023-04-10T09:21:24.876Z,16.56
2023-04-10T09:22:24.855Z,16.63
2023-04-10T09:23:24.995Z,16.52
2023-04-10T09:24:28.761Z,16.61
2023-04-10T09:25:25.292Z,16.71
2023-04-10T09:26:24.871Z,16.39
2023-04-10T09:27:25.743Z,16.21
2023-04-10T09:28:25.870Z,16.15
2023-04-10T09:29:25.867Z,16.28
2023-04-10T09:30:25.265Z,16.52
2023-04-10T09:31:24.815Z,16.46
2023-04-10T09:32:25.452Z,16.39
2023-04-10T09:33:24.799Z,16.23
2023-04-10T09:34:24.872Z,16.23
2023-04-10T09:35:24.766Z,16.33
2023-04-10T09:36:24.857Z,16.24
2023-04-10T09:37:24.653Z,16.30
2023-04-10T09:38:24.686Z,16.50
2023-04-10T09:39:25.020Z,16.63
2023-04-10T09:40:24.832Z,16.83
2023-04-10T09:41:24.956Z,16.88
2023-04-10T09:42:24.646Z,16.63
2023-04-10T09:43:24.773Z,16.35
2023-04-10T09:44:27.731Z,16.38
2023-04-10T09:45:25.053Z,16.28
2023-04-10T09:46:25.017Z,16.17
2023-04-10T09:47:26.652Z,16.23
2023-04-10T09:48:25.309Z,16.27
2023-04-10T09:49:26.207Z,16.33
2023-04-10T09:50:24.459Z,16.46
2023-04-10T09:51:25.885Z,16.52
2023-04-10T09:52:24.370Z,16.61
2023-04-10T09:53:24.378Z,16.78
2023-04-10T09:54:24.354Z,16.94
2023-04-10T09:55:24.370Z,17.03
2023-04-10T09:56:24.347Z,16.94
2023-04-10T09:57:24.338Z,16.81
2023-04-10T09:58:24.464Z,16.94
2023-04-10T09:59:24.298Z,17.04
2023-04-10T10:00:24.311Z,17.08
2023-04-10T10:01:24.431Z,16.79
2023-04-10T10:02:24.567Z,16.66
2023-04-10T10:03:24.376Z,16.49
2023-04-10T10:04:24.270Z,16.49
2023-04-10T10:05:24.270Z,16.56
2023-04-10T10:06:24.254Z,16.71
2023-04-10T10:07:24.238Z,16.81
2023-04-10T10:08:24.287Z,16.88
2023-04-10T10:09:24.158Z,16.88
2023-04-10T10:10:24.245Z,17.00
2023-04-10T10:11:24.200Z,17.01
2023-04-10T10:12:24.126Z,17.03
2023-04-10T10:13:24.119Z,16.86
2023-04-10T10:14:24.101Z,16.81
2023-04-10T10:15:24.117Z,16.63
2023-04-10T10:16:24.066Z,16.75
2023-04-10T10:17:24.084Z,16.75
2023-04-10T10:18:24.091Z,16.76
2023-04-10T10:19:24.065Z,16.73
2023-04-10T10:20:24.012Z,16.75
2023-04-10T10:21:24.014Z,16.70
2023-04-10T10:22:23.972Z,16.75
2023-04-10T10:23:23.989Z,16.63
2023-04-10T10:24:23.944Z,16.73
2023-04-10T10:25:26.233Z,16.86
2023-04-10T10:26:24.552Z,16.79
2023-04-10T10:27:24.250Z,17.03
2023-04-10T10:28:24.175Z,17.26
2023-04-10T10:29:24.898Z,17.40
2023-04-10T10:30:29.478Z,17.36
2023-04-10T10:31:27.337Z,17.30
2023-04-10T10:32:27.035Z,17.51
2023-04-10T10:33:24.059Z,17.74
2023-04-10T10:34:23.856Z,17.82
2023-04-10T10:35:25.563Z,17.55
2023-04-10T10:36:23.883Z,17.59
2023-04-10T10:37:23.860Z,17.55
2023-04-10T10:38:23.945Z,17.59
2023-04-10T10:39:23.824Z,17.46
2023-04-10T10:40:23.751Z,17.48
2023-04-10T10:41:23.777Z,17.41
2023-04-10T10:42:23.997Z,17.44
2023-04-10T10:43:23.741Z,17.49
2023-04-10T10:44:23.856Z,17.44
2023-04-10T10:45:23.859Z,17.49
2023-04-10T10:46:23.797Z,17.48
2023-04-10T10:47:23.752Z,17.49
2023-04-10T10:48:23.659Z,17.56
2023-04-10T10:49:23.713Z,17.62
2023-04-10T10:50:24.862Z,17.66
2023-04-10T10:51:23.606Z,17.84
2023-04-10T10:52:23.694Z,17.90
2023-04-10T10:53:23.598Z,17.89
2023-04-10T10:54:24.485Z,17.82
2023-04-10T10:55:27.943Z,17.71
2023-04-10T10:56:23.545Z,17.56
2023-04-10T10:57:23.527Z,17.48
2023-04-10T10:58:23.539Z,17.51
2023-04-10T10:59:23.494Z,17.44
2023-04-10T11:00:23.542Z,17.40
2023-04-10T11:01:23.459Z,17.41
2023-04-10T11:02:23.633Z,17.18
2023-04-10T11:03:31.132Z,17.15
2023-04-10T11:04:23.404Z,17.15
2023-04-10T11:05:23.387Z,17.15
2023-04-10T11:06:23.412Z,17.25
2023-04-10T11:07:23.359Z,17.31
2023-04-10T11:08:23.425Z,17.49
2023-04-10T11:09:23.365Z,17.56
2023-04-10T11:10:24.776Z,17.52
2023-04-10T11:11:23.362Z,17.49
2023-04-10T11:12:23.458Z,17.41
2023-04-10T11:13:23.435Z,17.16
2023-04-10T11:14:24.472Z,17.14
2023-04-10T11:15:23.586Z,17.06
2023-04-10T11:16:23.825Z,17.11
2023-04-10T11:17:23.292Z,17.30
2023-04-10T11:18:23.389Z,17.48
2023-04-10T11:19:24.024Z,17.43
2023-04-10T11:20:23.685Z,17.37
2023-04-10T11:21:23.429Z,17.22
2023-04-10T11:22:23.183Z,17.23
2023-04-10T11:23:23.181Z,17.37
2023-04-10T11:24:23.350Z,17.48
2023-04-10T11:25:38.340Z,17.49
2023-04-10T11:26:23.159Z,17.63
2023-04-10T11:27:23.214Z,17.82
2023-04-10T11:28:24.218Z,17.82
2023-04-10T11:29:24.289Z,17.66
2023-04-10T11:30:23.120Z,17.72
2023-04-10T11:31:23.377Z,17.77
2023-04-10T11:32:23.784Z,17.79
2023-04-10T11:33:23.059Z,17.90
2023-04-10T11:34:23.328Z,17.90
2023-04-10T11:35:23.199Z,17.74
2023-04-10T11:36:24.452Z,17.79
2023-04-10T11:37:24.044Z,17.84
2023-04-10T11:38:22.963Z,17.87
2023-04-10T11:39:22.925Z,17.92
2023-04-10T11:40:23.082Z,17.96
2023-04-10T11:41:22.951Z,18.11
2023-04-10T11:42:23.033Z,18.26
2023-04-10T11:43:25.603Z,18.30
2023-04-10T11:44:22.910Z,18.33
2023-04-10T11:45:22.910Z,18.54
2023-04-10T11:46:22.898Z,18.63
2023-04-10T11:47:22.895Z,18.37
2023-04-10T11:48:22.866Z,18.36
2023-04-10T11:49:22.795Z,18.17
2023-04-10T11:50:22.800Z,18.15
2023-04-10T11:51:22.805Z,18.23
2023-04-10T11:52:22.860Z,18.21
2023-04-10T11:53:22.798Z,18.39
2023-04-10T11:54:22.814Z,18.47
2023-04-10T11:55:22.789Z,18.30
2023-04-10T11:56:22.747Z,18.21
2023-04-10T11:57:22.807Z,18.05
2023-04-10T11:58:22.726Z,18.02
2023-04-10T11:59:22.776Z,18.18
2023-04-10T12:00:22.681Z,18.39
2023-04-10T12:01:22.698Z,18.20
2023-04-10T12:02:22.852Z,18.18
2023-04-10T12:03:22.858Z,18.37
2023-04-10T12:04:22.982Z,18.51
2023-04-10T12:05:22.621Z,18.54
2023-04-10T12:06:22.576Z,18.57
2023-04-10T12:07:22.706Z,18.27
2023-04-10T12:08:22.728Z,18.12
2023-04-10T12:09:22.575Z,18.11
2023-04-10T12:10:22.727Z,18.10
2023-04-10T12:11:22.547Z,18.32
2023-04-10T12:12:22.818Z,18.25
2023-04-10T12:13:22.535Z,18.17
2023-04-10T12:14:22.527Z,18.30
2023-04-10T12:15:22.500Z,18.55
2023-04-10T12:16:22.817Z,18.50
2023-04-10T12:17:22.576Z,18.60
2023-04-10T12:18:22.445Z,18.80
2023-04-10T12:19:22.554Z,18.78
2023-04-10T12:20:22.543Z,18.78
2023-04-10T12:21:22.525Z,18.90
2023-04-10T12:22:22.578Z,18.94
2023-04-10T12:23:22.328Z,18.81
2023-04-10T12:24:22.601Z,18.47
2023-04-10T12:25:22.492Z,18.44
2023-04-10T12:26:22.404Z,18.42
2023-04-10T12:27:22.394Z,18.55
2023-04-10T12:28:22.473Z,18.58
2023-04-10T12:29:22.296Z,18.33
2023-04-10T12:30:22.264Z,18.17
2023-04-10T12:31:22.559Z,18.18
2023-04-10T12:32:22.377Z,18.39
2023-04-10T12:33:22.822Z,18.54
2023-04-10T12:34:22.217Z,18.52
2023-04-10T12:35:22.197Z,18.48
2023-04-10T12:36:22.340Z,18.75
2023-04-10T12:37:22.252Z,19.10
2023-04-10T12:38:22.170Z,19.26
2023-04-10T12:39:22.334Z,19.46
2023-04-10T12:40:22.305Z,19.66
2023-04-10T12:41:22.156Z,19.91
2023-04-10T12:42:22.324Z,20.06
2023-04-10T12:43:22.128Z,20.14
2023-04-10T12:44:22.179Z,20.02
2023-04-10T12:45:22.506Z,19.48
2023-04-10T12:46:22.075Z,18.73
2023-04-10T12:47:22.067Z,18.63
2023-04-10T12:48:22.143Z,18.65
2023-04-10T12:49:22.059Z,18.65
2023-04-10T12:50:22.060Z,18.67
2023-04-10T12:51:22.136Z,18.62
2023-04-10T12:52:22.047Z,18.63
2023-04-10T12:53:22.058Z,18.65
2023-04-10T12:54:21.985Z,18.65
2023-04-10T12:55:21.976Z,18.65
2023-04-10T12:56:22.078Z,18.73
2023-04-10T12:57:21.954Z,18.90
2023-04-10T12:58:21.874Z,19.08
2023-04-10T12:59:23.032Z,19.07
2023-04-10T13:00:21.929Z,19.02
2023-04-10T13:01:22.061Z,19.02
2023-04-10T13:02:22.029Z,18.98
2023-04-10T13:03:22.231Z,18.80